createdAt,value
2022-09-07T00:02:20.628Z,3.70
2022-09-07T00:05:22.301Z,4.20
2022-09-07T00:08:24.951Z,3.70
2022-09-07T00:11:26.705Z,3.70
2022-09-07T00:14:28.423Z,3.87
2022-09-07T00:17:30.061Z,3.80
2022-09-07T00:20:31.722Z,4.40
2022-09-07T00:23:34.369Z,3.87
2022-09-07T00:26:36.105Z,3.80
2022-09-07T00:29:38.123Z,3.83
2022-09-07T00:32:40.101Z,3.60
2022-09-07T00:35:41.966Z,3.77
2022-09-07T00:38:43.682Z,3.70
2022-09-07T00:41:45.332Z,3.83
2022-09-07T00:45:16.624Z,3.77
2022-09-07T00:48:18.505Z,3.90
2022-09-07T00:51:24.002Z,3.80
2022-09-07T00:54:29.164Z,3.67
2022-09-07T00:57:31.506Z,3.50
2022-09-07T01:00:33.173Z,3.73
2022-09-07T01:03:38.668Z,3.20
2022-09-07T01:06:41.926Z,4.00
2022-09-07T01:09:44.128Z,3.47
2022-09-07T01:12:45.801Z,3.40
2022-09-07T01:15:47.457Z,3.83
2022-09-07T01:19:05.188Z,3.50
2022-09-07T01:22:25.796Z,4.10
2022-09-07T01:25:45.913Z,3.87
2022-09-07T01:28:49.937Z,3.73
2022-09-07T01:32:11.788Z,3.53
2022-09-07T01:35:22.053Z,3.50
2022-09-07T01:38:27.600Z,3.70
2022-09-07T01:41:32.269Z,3.50
2022-09-07T01:44:42.100Z,3.57
2022-09-07T01:47:46.167Z,3.60
2022-09-07T01:50:52.155Z,3.80
2022-09-07T01:53:55.620Z,3.73
2022-09-07T01:56:59.119Z,3.57
2022-09-07T02:00:05.382Z,3.83
2022-09-07T02:03:32.534Z,3.80
2022-09-07T02:06:34.238Z,3.40
2022-09-07T02:09:54.027Z,3.53
2022-09-07T02:12:59.531Z,3.60
2022-09-07T02:16:22.434Z,3.80
2022-09-07T02:19:25.179Z,3.30
2022-09-07T02:22:28.913Z,3.77
2022-09-07T02:25:37.803Z,3.90
2022-09-07T02:28:40.029Z,3.80
2022-09-07T02:31:41.704Z,4.10
2022-09-07T02:34:43.412Z,3.80
2022-09-07T02:37:45.588Z,3.83
2022-09-07T02:40:54.225Z,4.30
2022-09-07T02:43:56.252Z,3.73
2022-09-07T02:47:08.177Z,4.20
2022-09-07T02:50:13.117Z,4.07
2022-09-07T02:53:33.579Z,3.80
2022-09-07T02:56:35.249Z,4.10
2022-09-07T02:59:36.835Z,4.03
2022-09-07T03:02:48.524Z,3.70
2022-09-07T03:05:53.132Z,4.07
2022-09-07T03:08:56.898Z,4.40
2022-09-07T03:12:01.768Z,4.10
2022-09-07T03:15:03.613Z,4.43
2022-09-07T03:18:05.349Z,4.00
2022-09-07T03:21:07.173Z,4.13
2022-09-07T03:24:09.120Z,4.20
2022-09-07T03:27:11.645Z,4.57
2022-09-07T03:30:13.643Z,4.13
2022-09-07T03:33:16.208Z,4.40
2022-09-07T03:36:17.924Z,4.33
2022-09-07T03:39:22.653Z,3.97
2022-09-07T03:42:24.527Z,4.50
2022-09-07T03:45:26.173Z,5.00
2022-09-07T03:48:31.719Z,4.60
2022-09-07T03:51:33.557Z,4.73
2022-09-07T03:54:39.353Z,4.57
2022-09-07T03:57:42.820Z,4.20
2022-09-07T04:00:44.493Z,4.43
2022-09-07T04:03:46.638Z,4.57
2022-09-07T04:06:48.274Z,4.17
2022-09-07T04:09:51.477Z,4.40
2022-09-07T04:12:53.354Z,4.57
2022-09-07T04:15:55.169Z,4.73
2022-09-07T04:18:57.735Z,5.00
2022-09-07T04:21:59.410Z,5.07
2022-09-07T04:25:01.069Z,4.90
2022-09-07T04:28:02.885Z,4.90
2022-09-07T04:31:04.593Z,5.33
2022-09-07T04:34:06.881Z,4.73
2022-09-07T04:37:08.558Z,5.20
2022-09-07T04:40:10.589Z,4.57
2022-09-07T04:43:13.250Z,4.93
2022-09-07T04:46:21.903Z,5.13
2022-09-07T04:49:23.639Z,4.37
2022-09-07T04:52:25.376Z,4.27
2022-09-07T04:55:27.001Z,4.27
2022-09-07T04:58:28.741Z,4.87
2022-09-07T05:01:30.586Z,5.20
2022-09-07T05:04:34.764Z,4.80
2022-09-07T05:07:36.545Z,4.40
2022-09-07T05:10:38.159Z,4.23
2022-09-07T05:13:39.902Z,4.80
2022-09-07T05:16:41.693Z,4.70
2022-09-07T05:19:43.488Z,4.70
2022-09-07T05:22:45.183Z,5.77
2022-09-07T05:25:46.943Z,5.93
2022-09-07T05:28:49.328Z,5.40
2022-09-07T05:31:51.071Z,4.50
2022-09-07T05:34:53.628Z,4.27
2022-09-07T05:37:55.338Z,4.17
2022-09-07T05:40:57.127Z,4.43
2022-09-07T05:47:20.543Z,6.57
2022-09-07T05:50:22.415Z,5.20
2022-09-07T05:53:24.131Z,9.13
2022-09-07T05:56:26.217Z,6.50
2022-09-07T05:59:27.922Z,4.43
2022-09-07T06:02:29.700Z,5.93
2022-09-07T06:05:31.441Z,4.77
2022-09-07T06:08:34.405Z,4.40
2022-09-07T06:11:36.467Z,4.43
2022-09-07T06:14:38.134Z,4.80
2022-09-07T06:17:40.047Z,4.20
2022-09-07T06:20:41.769Z,4.17
2022-09-07T06:23:43.845Z,3.77
2022-09-07T06:26:45.574Z,3.77
2022-09-07T06:29:47.279Z,5.27
2022-09-07T06:32:49.055Z,3.23
2022-09-07T06:35:57.452Z,3.70
2022-09-07T06:39:01.509Z,2.93
2022-09-07T06:42:06.434Z,3.10
2022-09-07T06:45:16.207Z,2.90
2022-09-07T06:48:17.844Z,3.20
2022-09-07T06:51:20.359Z,5.15
2022-09-07T06:57:43.774Z,3.58
2022-09-07T07:00:45.904Z,3.55
2022-09-07T07:03:47.985Z,3.90
2022-09-07T07:06:49.646Z,3.10
2022-09-07T07:09:51.333Z,3.35
2022-09-07T07:12:57.610Z,3.80
2022-09-07T07:16:07.752Z,3.42
2022-09-07T07:19:09.772Z,3.10
2022-09-07T07:25:36.758Z,2.65
2022-09-07T07:32:00.861Z,2.60
2022-09-07T07:35:02.646Z,2.22
2022-09-07T07:44:49.664Z,2.38
2022-09-07T07:47:51.533Z,2.30
2022-09-07T07:51:02.652Z,2.30
2022-09-07T07:54:06.034Z,2.40
2022-09-07T07:57:07.786Z,2.30
2022-09-07T08:00:09.658Z,2.13
2022-09-07T08:03:14.071Z,2.38
2022-09-07T08:06:20.153Z,2.25
2022-09-07T08:09:21.814Z,2.30
2022-09-07T08:12:27.793Z,2.30
2022-09-07T08:15:31.276Z,1.92
2022-09-07T08:18:33.221Z,2.13
2022-09-07T08:21:34.954Z,2.17
2022-09-07T08:24:36.554Z,2.08
2022-09-07T08:27:38.261Z,2.22
2022-09-07T08:30:40.522Z,2.20
2022-09-07T08:33:42.409Z,2.00
2022-09-07T08:36:44.187Z,2.10
2022-09-07T08:39:45.948Z,2.00
2022-09-07T08:42:48.561Z,2.17
2022-09-07T08:45:54.463Z,2.13
2022-09-07T08:48:57.267Z,2.45
2022-09-07T08:52:02.817Z,2.10
2022-09-07T08:55:12.826Z,2.20
2022-09-07T08:58:27.046Z,2.10
2022-09-07T09:01:38.826Z,2.10
2022-09-07T09:08:14.741Z,2.22
2022-09-07T09:11:36.571Z,2.20
2022-09-07T09:14:38.140Z,2.10
2022-09-07T09:17:44.641Z,2.20
2022-09-07T09:20:50.233Z,2.30
2022-09-07T09:23:53.395Z,2.20
2022-09-07T09:26:57.289Z,2.20
2022-09-07T09:29:58.962Z,2.10
2022-09-07T09:33:19.440Z,2.10
2022-09-07T09:36:25.884Z,2.00
2022-09-07T09:39:37.656Z,2.00
2022-09-07T09:42:39.387Z,2.00
2022-09-07T09:49:17.602Z,2.20
2022-09-07T09:52:30.536Z,2.63
2022-09-07T09:55:36.474Z,2.30
2022-09-07T10:05:45.132Z,2.53
2022-09-07T10:09:04.689Z,2.80
2022-09-07T10:12:08.233Z,8.77
2022-09-07T10:15:24.618Z,8.37
2022-09-07T10:18:32.494Z,6.03
2022-09-07T10:21:34.463Z,2.70
2022-09-07T10:24:39.069Z,2.60
2022-09-07T10:27:41.013Z,2.60
2022-09-07T10:30:51.631Z,2.50
2022-09-07T10:37:35.745Z,2.40
2022-09-07T10:40:51.264Z,2.33
2022-09-07T10:43:52.865Z,2.30
2022-09-07T10:47:16.773Z,2.10
2022-09-07T10:50:28.914Z,2.30
2022-09-07T10:53:41.340Z,2.63
2022-09-07T10:56:56.613Z,2.30
2022-09-07T11:00:13.732Z,2.10
2022-09-07T11:03:27.172Z,2.67
2022-09-07T11:06:34.845Z,2.23
2022-09-07T11:10:05.581Z,2.40
2022-09-07T11:13:09.921Z,2.50
2022-09-07T11:16:50.426Z,2.20
2022-09-07T11:20:02.113Z,2.10
2022-09-07T11:23:11.337Z,2.50
2022-09-07T11:26:31.660Z,2.53
2022-09-07T11:29:52.007Z,2.30
2022-09-07T11:33:12.194Z,2.10
2022-09-07T11:36:15.215Z,2.07
2022-09-07T11:39:19.992Z,2.43
2022-09-07T11:45:55.467Z,2.10
2022-09-07T11:48:57.891Z,2.30
2022-09-07T11:52:05.841Z,2.00
2022-09-07T11:55:10.179Z,2.03
2022-09-07T11:58:21.119Z,2.20
2022-09-07T12:01:23.062Z,2.17
2022-09-07T12:04:29.507Z,2.80
2022-09-07T12:07:37.157Z,2.47
2022-09-07T12:10:46.531Z,2.87
2022-09-07T12:13:58.278Z,2.97
2022-09-07T12:17:11.842Z,2.83
2022-09-07T12:20:20.541Z,3.00
2022-09-07T12:23:26.436Z,2.80
2022-09-07T12:26:34.169Z,2.60
2022-09-07T12:29:35.739Z,2.30
2022-09-07T12:32:57.510Z,2.20
2022-09-07T12:36:01.083Z,2.43
2022-09-07T12:39:02.705Z,2.20
2022-09-07T12:45:29.512Z,2.23
2022-09-07T12:48:33.970Z,2.47
2022-09-07T12:55:27.571Z,2.20
2022-09-07T12:58:42.031Z,1.90
2022-09-07T13:01:48.933Z,2.23
2022-09-07T13:05:03.937Z,1.97
2022-09-07T13:08:09.174Z,2.10
2022-09-07T13:11:23.370Z,2.30
2022-09-07T13:14:26.356Z,1.95
2022-09-07T13:17:27.928Z,2.37
2022-09-07T13:20:37.632Z,2.33
2022-09-07T13:23:45.773Z,2.70
2022-09-07T13:26:58.619Z,2.57
2022-09-07T13:30:19.783Z,2.40
2022-09-07T13:33:24.203Z,2.40
2022-09-07T13:36:26.169Z,2.80
2022-09-07T13:39:28.809Z,2.30
2022-09-07T13:42:34.312Z,2.37
2022-09-07T13:45:45.660Z,2.50
2022-09-07T13:48:52.642Z,2.30
2022-09-07T13:52:12.171Z,2.60
2022-09-07T13:55:25.834Z,2.40
2022-09-07T13:58:30.007Z,2.47
2022-09-07T14:01:31.658Z,2.10
2022-09-07T14:04:44.435Z,2.50
2022-09-07T14:07:49.087Z,3.07
2022-09-07T14:10:50.710Z,3.43
2022-09-07T14:14:08.956Z,3.97
2022-09-07T14:17:12.595Z,2.83
2022-09-07T14:20:15.674Z,2.60
2022-09-07T14:23:27.096Z,2.73
2022-09-07T14:26:29.313Z,2.67
2022-09-07T14:29:32.560Z,2.97
2022-09-07T14:32:34.217Z,2.30
2022-09-07T14:35:38.323Z,4.10
2022-09-07T14:42:02.821Z,2.60
2022-09-07T14:45:16.987Z,2.60
2022-09-07T14:48:26.451Z,2.83
2022-09-07T14:51:36.608Z,2.80
2022-09-07T14:54:38.587Z,2.87
2022-09-07T14:57:40.166Z,3.30
2022-09-07T15:00:42.935Z,3.00
2022-09-07T15:03:44.800Z,2.70
2022-09-07T15:07:02.675Z,3.50
2022-09-07T15:10:27.635Z,3.10
2022-09-07T15:13:32.980Z,3.30
2022-09-07T15:16:36.260Z,3.20
2022-09-07T15:19:37.859Z,3.40
2022-09-07T15:22:39.528Z,2.90
2022-09-07T15:25:44.354Z,3.07
2022-09-07T15:32:11.399Z,3.30
2022-09-07T15:35:13.160Z,3.20
2022-09-07T15:41:36.404Z,2.90
2022-09-07T15:44:38.152Z,3.57
2022-09-07T15:47:47.124Z,3.20
2022-09-07T15:50:55.623Z,3.43
2022-09-07T15:54:12.858Z,3.20
2022-09-07T16:00:37.113Z,3.03
2022-09-07T16:03:38.841Z,2.80
2022-09-07T16:06:41.188Z,3.23
2022-09-07T16:09:42.781Z,3.00
2022-09-07T16:13:01.206Z,3.47
2022-09-07T16:16:04.871Z,3.50
2022-09-07T16:19:07.287Z,3.63
2022-09-07T16:22:09.550Z,4.00
2022-09-07T16:25:11.265Z,3.87
2022-09-07T16:28:12.881Z,3.90
2022-09-07T16:31:16.240Z,4.20
2022-09-07T16:34:21.242Z,4.13
2022-09-07T16:37:22.834Z,5.80
2022-09-07T16:40:24.835Z,3.63
2022-09-07T16:43:26.845Z,4.10
2022-09-07T16:46:30.651Z,3.93
2022-09-07T16:49:32.254Z,4.47
2022-09-07T16:52:34.611Z,4.23
2022-09-07T16:55:36.259Z,4.40
2022-09-07T16:58:39.075Z,3.93
2022-09-07T17:01:40.667Z,4.03
2022-09-07T17:04:42.365Z,3.50
2022-09-07T17:07:44.009Z,4.37
2022-09-07T17:10:45.787Z,3.70
2022-09-07T17:13:47.832Z,3.73
2022-09-07T17:16:49.644Z,4.07
2022-09-07T17:19:53.110Z,3.90
2022-09-07T17:22:54.896Z,4.07
2022-09-07T17:26:13.825Z,4.00
2022-09-07T17:29:16.801Z,3.77
2022-09-07T17:32:25.983Z,3.90
2022-09-07T17:35:27.815Z,4.57
2022-09-07T17:41:54.632Z,3.90
2022-09-07T17:44:56.383Z,4.50
2022-09-07T17:47:58.053Z,4.47
2022-09-07T17:51:01.266Z,4.27
2022-09-07T17:54:09.175Z,3.97
2022-09-07T17:57:11.311Z,4.37
2022-09-07T18:00:13.264Z,4.50
2022-09-07T18:03:14.957Z,4.60
2022-09-07T18:06:16.761Z,4.57
2022-09-07T18:09:19.723Z,4.47
2022-09-07T18:12:22.652Z,3.83
2022-09-07T18:15:27.616Z,3.93
2022-09-07T18:18:30.225Z,4.30
2022-09-07T18:21:33.151Z,4.17
2022-09-07T18:24:36.873Z,4.27
2022-09-07T18:27:39.488Z,4.20
2022-09-07T18:30:42.749Z,4.83
2022-09-07T18:33:44.954Z,5.23
2022-09-07T18:36:46.512Z,5.33
2022-09-07T18:39:48.899Z,5.40
2022-09-07T18:42:52.287Z,5.03
2022-09-07T18:46:00.211Z,4.63
2022-09-07T18:49:01.843Z,4.90
2022-09-07T18:55:25.667Z,5.37
2022-09-07T18:58:27.271Z,6.00
2022-09-07T19:01:31.941Z,5.53
2022-09-07T19:07:55.736Z,5.40
2022-09-07T19:11:03.725Z,6.37
2022-09-07T19:14:05.432Z,5.53
2022-09-07T19:17:07.106Z,5.00
2022-09-07T19:20:09.321Z,6.50
2022-09-07T19:23:11.006Z,7.43
2022-09-07T19:26:12.597Z,5.00
2022-09-07T19:29:15.762Z,5.10
2022-09-07T19:32:18.056Z,5.10
2022-09-07T19:35:19.619Z,6.20
2022-09-07T19:38:21.442Z,4.70
2022-09-07T19:41:23.085Z,5.20
2022-09-07T19:44:24.758Z,6.23
2022-09-07T19:47:26.435Z,5.47
2022-09-07T19:50:28.095Z,5.50
2022-09-07T19:53:31.103Z,6.20
2022-09-07T19:56:33.099Z,5.90
2022-09-07T19:59:34.753Z,6.20
2022-09-07T20:02:36.408Z,6.50
2022-09-07T20:05:40.833Z,5.77
2022-09-07T20:08:43.103Z,5.37
2022-09-07T20:11:46.959Z,6.10
2022-09-07T20:14:48.707Z,5.37
2022-09-07T20:17:50.293Z,4.17
2022-09-07T20:20:51.867Z,4.00
2022-09-07T20:23:53.544Z,3.60
2022-09-07T20:26:55.160Z,3.97
2022-09-07T20:29:56.723Z,3.77
2022-09-07T20:32:58.427Z,3.73
2022-09-07T20:36:07.593Z,3.73
2022-09-07T20:39:13.729Z,4.00
2022-09-07T20:42:15.376Z,3.80
2022-09-07T20:45:17.024Z,3.70
2022-09-07T20:48:18.753Z,3.87
2022-09-07T20:51:21.241Z,3.93
2022-09-07T20:54:22.964Z,3.63
2022-09-07T20:57:24.838Z,3.70
2022-09-07T21:00:26.452Z,3.93
2022-09-07T21:03:28.760Z,3.90
2022-09-07T21:06:31.095Z,4.47
2022-09-07T21:09:32.741Z,4.50
2022-09-07T21:12:34.660Z,4.27
2022-09-07T21:15:40.424Z,4.40
2022-09-07T21:18:42.779Z,3.90
2022-09-07T21:21:44.370Z,3.90
2022-09-07T21:24:45.969Z,4.27
2022-09-07T21:27:47.564Z,4.20
2022-09-07T21:31:09.473Z,4.50
2022-09-07T21:34:11.397Z,4.43
2022-09-07T21:37:13.019Z,4.50
2022-09-07T21:40:14.621Z,4.20
2022-09-07T21:43:16.751Z,4.67
2022-09-07T21:46:18.870Z,4.20
2022-09-07T21:49:20.512Z,4.83
2022-09-07T21:52:22.123Z,4.43
2022-09-07T21:55:23.703Z,4.63
2022-09-07T21:58:26.012Z,4.07
2022-09-07T22:01:28.459Z,4.80
2022-09-07T22:04:30.046Z,5.00
2022-09-07T22:07:32.074Z,4.77
2022-09-07T22:10:34.349Z,4.93
2022-09-07T22:13:36.424Z,4.40
2022-09-07T22:16:38.117Z,4.70
2022-09-07T22:19:39.731Z,4.70
2022-09-07T22:22:41.474Z,4.93
2022-09-07T22:25:51.199Z,4.60
2022-09-07T22:28:52.792Z,4.70
2022-09-07T22:31:54.395Z,4.83
2022-09-07T22:34:56.002Z,4.90
2022-09-07T22:37:57.532Z,4.97
2022-09-07T22:41:05.835Z,4.90
2022-09-07T22:44:10.166Z,4.40
2022-09-07T22:47:12.016Z,4.83
2022-09-07T22:50:13.685Z,4.70
2022-09-07T22:53:16.861Z,4.80
2022-09-07T22:56:20.343Z,4.97
2022-09-07T22:59:21.878Z,4.27
2022-09-07T23:02:23.435Z,4.60
2022-09-07T23:05:25.067Z,4.53
2022-09-07T23:08:27.169Z,4.50
2022-09-07T23:11:28.786Z,4.70
2022-09-07T23:14:30.978Z,4.93
2022-09-07T23:17:32.649Z,4.60
2022-09-07T23:20:34.234Z,4.87
2022-09-07T23:23:35.767Z,4.80
2022-09-07T23:26:38.262Z,4.90
2022-09-07T23:29:39.819Z,5.00
2022-09-07T23:32:41.432Z,4.90
2022-09-07T23:35:43.453Z,4.63
2022-09-07T23:38:45.430Z,4.63
2022-09-07T23:41:47.137Z,4.50
2022-09-07T23:44:48.971Z,4.97
2022-09-07T23:47:50.683Z,4.90
2022-09-07T23:50:53.243Z,4.80
2022-09-07T23:53:55.020Z,4.90
2022-09-07T23:56:56.610Z,4.60
2022-09-07T23:59:58.244Z,4.37
